createdAt,value
2023-05-21T00:00:29.665Z,92.90
2023-05-21T00:01:29.648Z,93.00
2023-05-21T00:02:29.683Z,92.90
2023-05-21T00:03:29.814Z,93.00
2023-05-21T00:04:29.634Z,93.00
2023-05-21T00:05:29.613Z,93.00
2023-05-21T00:06:29.808Z,93.00
2023-05-21T00:07:29.590Z,93.00
2023-05-21T00:08:29.583Z,92.90
2023-05-21T00:09:29.585Z,93.00
2023-05-21T00:10:29.551Z,93.05
2023-05-21T00:11:29.540Z,93.05
2023-05-21T00:12:29.538Z,93.05
2023-05-21T00:13:29.529Z,93.15
2023-05-21T00:14:29.524Z,93.25
2023-05-21T00:15:29.528Z,93.25
2023-05-21T00:16:29.584Z,93.35
2023-05-21T00:17:29.500Z,93.35
2023-05-21T00:18:29.466Z,93.35
2023-05-21T00:19:29.603Z,93.45
2023-05-21T00:20:29.473Z,93.66
2023-05-21T00:21:29.455Z,93.55
2023-05-21T00:22:29.432Z,93.45
2023-05-21T00:23:29.416Z,93.45
2023-05-21T00:24:29.403Z,93.55
2023-05-21T00:25:29.401Z,93.45
2023-05-21T00:26:29.404Z,93.45
2023-05-21T00:27:29.389Z,93.76
2023-05-21T00:28:29.372Z,93.76
2023-05-21T00:29:29.355Z,93.76
2023-05-21T00:30:29.350Z,93.76
2023-05-21T00:31:29.352Z,93.66
2023-05-21T00:32:29.392Z,93.86
2023-05-21T00:33:29.318Z,93.96
2023-05-21T00:34:29.305Z,94.27
2023-05-21T00:35:29.290Z,94.37
2023-05-21T00:36:29.280Z,94.27
2023-05-21T00:37:29.299Z,94.27
2023-05-21T00:38:29.269Z,94.27
2023-05-21T00:39:29.253Z,94.27
2023-05-21T00:40:29.244Z,94.37
2023-05-21T00:41:29.227Z,94.48
2023-05-21T00:42:29.220Z,94.68
2023-05-21T00:43:29.236Z,94.58
2023-05-21T00:44:29.197Z,94.68
2023-05-21T00:45:29.195Z,94.58
2023-05-21T00:46:29.232Z,94.58
2023-05-21T00:47:29.200Z,94.68
2023-05-21T00:48:29.156Z,94.58
2023-05-21T00:49:29.152Z,94.78
2023-05-21T00:50:29.138Z,94.78
2023-05-21T00:51:29.153Z,94.68
2023-05-21T00:52:29.123Z,94.68
2023-05-21T00:53:29.105Z,94.68
2023-05-21T00:54:29.106Z,94.68
2023-05-21T00:55:29.085Z,94.68
2023-05-21T00:56:29.104Z,94.58
2023-05-21T00:57:29.069Z,94.58
2023-05-21T00:58:29.051Z,94.58
2023-05-21T00:59:29.044Z,94.58
2023-05-21T01:00:29.033Z,94.68
2023-05-21T01:01:29.057Z,94.58
2023-05-21T01:02:29.084Z,94.58
2023-05-21T01:03:29.103Z,94.58
2023-05-21T01:04:28.989Z,94.58
2023-05-21T01:05:28.988Z,94.58
2023-05-21T01:06:28.966Z,94.58
2023-05-21T01:07:28.954Z,94.58
2023-05-21T01:08:28.961Z,94.48
2023-05-21T01:09:28.949Z,94.37
2023-05-21T01:10:28.923Z,94.37
2023-05-21T01:11:28.920Z,94.48
2023-05-21T01:12:28.928Z,94.58
2023-05-21T01:13:28.889Z,94.58
2023-05-21T01:14:28.886Z,94.48
2023-05-21T01:15:28.862Z,94.68
2023-05-21T01:16:28.865Z,94.68
2023-05-21T01:17:28.897Z,94.78
2023-05-21T01:18:28.872Z,94.78
2023-05-21T01:19:28.881Z,94.78
2023-05-21T01:20:28.814Z,94.78
2023-05-21T01:21:28.799Z,94.78
2023-05-21T01:22:28.790Z,94.78
2023-05-21T01:23:28.804Z,94.68
2023-05-21T01:24:28.763Z,94.78
2023-05-21T01:25:28.756Z,94.78
2023-05-21T01:26:28.747Z,94.89
2023-05-21T01:27:28.732Z,94.78
2023-05-21T01:28:28.718Z,94.78
2023-05-21T01:29:28.728Z,94.58
2023-05-21T01:30:28.719Z,94.58
2023-05-21T01:31:28.689Z,94.58
2023-05-21T01:32:28.710Z,94.68
2023-05-21T01:33:28.769Z,94.68
2023-05-21T01:34:28.659Z,94.68
2023-05-21T01:35:28.652Z,94.78
2023-05-21T01:36:28.639Z,94.78
2023-05-21T01:37:28.648Z,94.78
2023-05-21T01:38:28.625Z,94.78
2023-05-21T01:39:28.631Z,94.68
2023-05-21T01:40:28.600Z,94.68
2023-05-21T01:41:28.587Z,94.78
2023-05-21T01:42:28.570Z,94.78
2023-05-21T01:43:28.596Z,94.78
2023-05-21T01:44:28.592Z,94.68
2023-05-21T01:45:28.532Z,94.68
2023-05-21T01:46:28.580Z,94.68
2023-05-21T01:47:28.538Z,94.78
2023-05-21T01:48:28.517Z,94.78
2023-05-21T01:49:28.517Z,94.68
2023-05-21T01:50:28.510Z,94.68
2023-05-21T01:51:28.478Z,94.89
2023-05-21T01:52:28.474Z,94.98
2023-05-21T01:53:28.460Z,95.09
2023-05-21T01:54:28.456Z,95.29
2023-05-21T01:55:28.437Z,95.39
2023-05-21T01:56:28.440Z,95.29
2023-05-21T01:57:28.417Z,95.39
2023-05-21T01:58:28.396Z,95.50
2023-05-21T01:59:28.393Z,95.60
2023-05-21T02:00:28.389Z,95.60
2023-05-21T02:01:28.478Z,95.50
2023-05-21T02:02:28.476Z,95.39
2023-05-21T02:03:28.446Z,95.39
2023-05-21T02:04:28.346Z,95.44
2023-05-21T02:05:28.338Z,95.54
2023-05-21T02:06:28.322Z,95.64
2023-05-21T02:07:28.339Z,95.75
2023-05-21T02:08:28.301Z,95.80
2023-05-21T02:09:28.290Z,95.90
2023-05-21T02:10:28.294Z,95.90
2023-05-21T02:11:28.277Z,95.85
2023-05-21T02:12:28.303Z,95.80
2023-05-21T02:13:28.288Z,95.75
2023-05-21T02:14:28.244Z,95.75
2023-05-21T02:15:28.227Z,95.75
2023-05-21T02:16:28.277Z,95.75
2023-05-21T02:17:28.247Z,95.64
2023-05-21T02:18:28.222Z,95.75
2023-05-21T02:19:28.298Z,95.75
2023-05-21T02:20:28.204Z,95.75
2023-05-21T02:21:28.177Z,95.64
2023-05-21T02:22:28.173Z,95.64
2023-05-21T02:23:28.169Z,95.64
2023-05-21T02:24:28.133Z,95.85
2023-05-21T02:25:28.139Z,95.95
2023-05-21T02:26:28.134Z,95.95
2023-05-21T02:27:28.116Z,96.01
2023-05-21T02:28:28.102Z,96.01
2023-05-21T02:29:28.098Z,96.01
2023-05-21T02:30:28.106Z,96.01
2023-05-21T02:31:28.094Z,95.90
2023-05-21T02:32:28.096Z,95.80
2023-05-21T02:33:28.069Z,95.80
2023-05-21T02:34:28.068Z,95.90
2023-05-21T02:35:28.045Z,95.90
2023-05-21T02:36:28.022Z,95.80
2023-05-21T02:37:28.027Z,95.80
2023-05-21T02:38:28.031Z,95.80
2023-05-21T02:39:27.991Z,95.80
2023-05-21T02:40:27.980Z,95.80
2023-05-21T02:41:27.968Z,95.80
2023-05-21T02:42:27.957Z,95.90
2023-05-21T02:43:27.957Z,95.90
2023-05-21T02:44:27.953Z,95.90
2023-05-21T02:45:27.929Z,95.90
2023-05-21T02:46:27.988Z,95.80
2023-05-21T02:47:27.960Z,95.70
2023-05-21T02:48:27.852Z,95.70
2023-05-21T02:49:27.884Z,95.80
2023-05-21T02:50:27.827Z,95.90
2023-05-21T02:51:27.811Z,95.90
2023-05-21T02:52:27.794Z,96.01
2023-05-21T02:53:27.810Z,96.01
2023-05-21T02:54:27.786Z,96.01
2023-05-21T02:55:27.818Z,96.01
2023-05-21T02:56:27.777Z,96.11
2023-05-21T02:57:27.745Z,96.21
2023-05-21T02:58:27.735Z,96.21
2023-05-21T02:59:27.806Z,96.21
2023-05-21T03:00:27.735Z,96.21
2023-05-21T03:01:27.775Z,96.11
2023-05-21T03:02:27.782Z,96.21
2023-05-21T03:03:27.839Z,96.21
2023-05-21T03:04:27.673Z,96.21
2023-05-21T03:05:27.679Z,96.31
2023-05-21T03:06:27.665Z,96.21
2023-05-21T03:07:27.681Z,96.21
2023-05-21T03:08:27.638Z,96.21
2023-05-21T03:09:27.622Z,96.21
2023-05-21T03:10:27.611Z,96.31
2023-05-21T03:11:27.619Z,96.31
2023-05-21T03:12:27.587Z,96.21
2023-05-21T03:13:27.640Z,96.21
2023-05-21T03:14:27.576Z,96.11
2023-05-21T03:15:27.568Z,96.26
2023-05-21T03:16:27.626Z,96.26
2023-05-21T03:17:27.587Z,96.36
2023-05-21T03:18:27.544Z,96.26
2023-05-21T03:19:27.574Z,96.26
2023-05-21T03:20:27.512Z,96.26
2023-05-21T03:21:27.493Z,96.26
2023-05-21T03:22:27.498Z,96.15
2023-05-21T03:23:27.475Z,96.15
2023-05-21T03:24:27.487Z,96.15
2023-05-21T03:25:27.480Z,96.15
2023-05-21T03:26:27.447Z,96.05
2023-05-21T03:27:27.441Z,96.05
2023-05-21T03:28:27.434Z,96.05
2023-05-21T03:29:27.421Z,96.15
2023-05-21T03:30:27.424Z,96.26
2023-05-21T03:31:27.450Z,96.26
2023-05-21T03:32:27.407Z,96.15
2023-05-21T03:33:27.379Z,96.26
2023-05-21T03:34:27.368Z,96.26
2023-05-21T03:35:27.377Z,96.26
2023-05-21T03:36:27.365Z,96.15
2023-05-21T03:37:27.338Z,96.15
2023-05-21T03:38:27.329Z,96.15
2023-05-21T03:39:27.323Z,96.15
2023-05-21T03:40:27.307Z,96.15
2023-05-21T03:41:27.322Z,96.15
2023-05-21T03:42:27.294Z,96.05
2023-05-21T03:43:27.281Z,95.95
2023-05-21T03:44:27.273Z,95.95
2023-05-21T03:45:27.265Z,96.05
2023-05-21T03:46:27.335Z,96.05
2023-05-21T03:47:27.309Z,96.05
2023-05-21T03:48:27.229Z,96.15
2023-05-21T03:49:27.225Z,96.15
2023-05-21T03:50:27.215Z,96.15
2023-05-21T03:51:27.223Z,96.15
2023-05-21T03:52:27.216Z,96.11
2023-05-21T03:53:27.196Z,96.11
2023-05-21T03:54:27.166Z,96.11
2023-05-21T03:55:27.164Z,96.11
2023-05-21T03:56:27.155Z,96.01
2023-05-21T03:57:27.142Z,95.90
2023-05-21T03:58:27.148Z,95.90
2023-05-21T03:59:27.124Z,95.90
2023-05-21T04:00:27.102Z,95.80
2023-05-21T04:01:27.104Z,95.90
2023-05-21T04:02:27.187Z,95.80
2023-05-21T04:03:27.272Z,95.80
2023-05-21T04:04:27.141Z,95.80
2023-05-21T04:05:27.051Z,95.80
2023-05-21T04:06:27.048Z,95.80
2023-05-21T04:07:27.030Z,95.80
2023-05-21T04:08:27.041Z,95.80
2023-05-21T04:09:27.010Z,95.80
2023-05-21T04:10:27.025Z,95.90
2023-05-21T04:11:26.987Z,95.80
2023-05-21T04:12:26.981Z,95.80
2023-05-21T04:13:26.963Z,95.80
2023-05-21T04:14:26.972Z,95.80
2023-05-21T04:15:26.969Z,95.80
2023-05-21T04:16:26.952Z,95.80
2023-05-21T04:17:27.127Z,95.80
2023-05-21T04:18:26.912Z,95.90
2023-05-21T04:19:26.993Z,96.01
2023-05-21T04:20:26.899Z,95.90
2023-05-21T04:21:26.894Z,95.90
2023-05-21T04:22:26.864Z,96.01
2023-05-21T04:23:26.870Z,96.01
2023-05-21T04:24:26.848Z,96.11
2023-05-21T04:25:26.847Z,96.11
2023-05-21T04:26:26.822Z,96.06
2023-05-21T04:27:26.812Z,96.06
2023-05-21T04:28:26.798Z,96.06
2023-05-21T04:29:26.820Z,95.96
2023-05-21T04:30:26.789Z,95.96
2023-05-21T04:31:26.861Z,95.96
2023-05-21T04:32:26.803Z,95.96
2023-05-21T04:33:26.757Z,95.96
2023-05-21T04:34:26.733Z,95.96
2023-05-21T04:35:26.731Z,95.96
2023-05-21T04:36:26.710Z,96.06
2023-05-21T04:37:26.699Z,96.02
2023-05-21T04:38:26.732Z,96.02
2023-05-21T04:39:26.674Z,95.92
2023-05-21T04:40:26.675Z,95.92
2023-05-21T04:41:26.660Z,95.92
2023-05-21T04:42:26.661Z,96.02
2023-05-21T04:43:26.741Z,96.12
2023-05-21T04:44:26.637Z,96.12
2023-05-21T04:45:26.631Z,96.22
2023-05-21T04:46:26.633Z,96.22
2023-05-21T04:47:26.660Z,96.22
2023-05-21T04:48:26.627Z,96.22
2023-05-21T04:49:26.581Z,96.33
2023-05-21T04:50:26.564Z,96.33
2023-05-21T04:51:26.564Z,96.33
2023-05-21T04:52:26.544Z,96.22
2023-05-21T04:53:26.532Z,96.22
2023-05-21T04:54:26.511Z,96.12
2023-05-21T04:55:26.512Z,96.02
2023-05-21T04:56:26.500Z,96.02
2023-05-21T04:57:26.508Z,95.92
2023-05-21T04:58:26.475Z,95.77
2023-05-21T04:59:26.460Z,95.77
2023-05-21T05:00:26.454Z,95.67
2023-05-21T05:01:26.480Z,95.57
2023-05-21T05:02:26.460Z,95.47
2023-05-21T05:03:26.625Z,95.36
2023-05-21T05:04:26.442Z,95.26
2023-05-21T05:05:26.401Z,95.26
2023-05-21T05:06:26.385Z,95.16
2023-05-21T05:07:26.374Z,95.16
2023-05-21T05:08:26.358Z,95.16
2023-05-21T05:09:26.378Z,94.95
2023-05-21T05:10:26.336Z,94.95
2023-05-21T05:11:26.333Z,94.95
2023-05-21T05:12:26.333Z,95.06
2023-05-21T05:13:26.331Z,95.06
2023-05-21T05:14:26.317Z,95.01
2023-05-21T05:15:26.331Z,95.01
2023-05-21T05:16:26.422Z,95.01
2023-05-21T05:17:26.350Z,94.91
2023-05-21T05:18:26.263Z,94.50
2023-05-21T05:19:26.334Z,94.50
2023-05-21T05:20:26.229Z,94.40
2023-05-21T05:21:26.239Z,94.40
2023-05-21T05:22:26.219Z,94.30
2023-05-21T05:23:26.191Z,94.20
2023-05-21T05:24:26.213Z,94.20
2023-05-21T05:25:26.168Z,94.09
2023-05-21T05:26:26.162Z,93.95
2023-05-21T05:27:26.153Z,93.95
2023-05-21T05:28:26.143Z,94.05
2023-05-21T05:29:26.129Z,94.05
2023-05-21T05:30:26.159Z,93.95
2023-05-21T05:31:26.174Z,93.85
2023-05-21T05:32:26.127Z,93.74
2023-05-21T05:33:26.102Z,93.64
2023-05-21T05:34:26.075Z,93.33
2023-05-21T05:35:26.063Z,93.44
2023-05-21T05:36:26.068Z,93.33
2023-05-21T05:37:26.073Z,93.33
2023-05-21T05:38:26.036Z,93.33
2023-05-21T05:39:26.035Z,93.33
2023-05-21T05:40:26.005Z,93.44
2023-05-21T05:41:26.001Z,93.54
2023-05-21T05:42:25.989Z,93.54
2023-05-21T05:43:25.987Z,93.44
2023-05-21T05:44:25.979Z,93.40
2023-05-21T05:45:25.955Z,93.50
2023-05-21T05:46:25.976Z,93.40
2023-05-21T05:47:25.967Z,93.40
2023-05-21T05:48:25.943Z,93.29
2023-05-21T05:49:25.909Z,93.29
2023-05-21T05:50:25.903Z,93.19
2023-05-21T05:51:25.897Z,92.99
2023-05-21T05:52:25.889Z,92.89
2023-05-21T05:53:25.880Z,92.89
2023-05-21T05:54:25.857Z,92.68
2023-05-21T05:55:25.847Z,92.48
2023-05-21T05:56:25.834Z,92.18
2023-05-21T05:57:25.838Z,92.18
2023-05-21T05:58:25.811Z,92.27
2023-05-21T05:59:25.822Z,92.27
2023-05-21T06:00:25.791Z,92.27
2023-05-21T06:01:25.778Z,92.38
2023-05-21T06:02:25.896Z,92.38
2023-05-21T06:03:25.896Z,92.27
2023-05-21T06:04:25.756Z,92.27
2023-05-21T06:05:25.770Z,92.38
2023-05-21T06:06:25.722Z,92.48
2023-05-21T06:07:25.718Z,92.48
2023-05-21T06:08:25.699Z,92.68
2023-05-21T06:09:25.733Z,92.89
2023-05-21T06:10:25.714Z,92.79
2023-05-21T06:11:25.720Z,92.58
2023-05-21T06:12:25.674Z,92.68
2023-05-21T06:13:25.657Z,92.79
2023-05-21T06:14:25.649Z,92.79
2023-05-21T06:15:25.618Z,92.89
2023-05-21T06:16:25.645Z,92.99
2023-05-21T06:17:25.644Z,92.99
2023-05-21T06:18:25.588Z,92.79
2023-05-21T06:19:25.619Z,92.58
2023-05-21T06:20:25.564Z,92.58
2023-05-21T06:21:25.580Z,92.58
2023-05-21T06:22:25.787Z,92.58
2023-05-21T06:23:25.544Z,92.58
2023-05-21T06:24:25.519Z,92.58
2023-05-21T06:25:25.511Z,92.79
2023-05-21T06:26:25.501Z,92.89
2023-05-21T06:27:25.500Z,92.99
2023-05-21T06:28:25.494Z,93.19
2023-05-21T06:29:25.472Z,93.09
2023-05-21T06:30:25.468Z,93.19
2023-05-21T06:31:25.449Z,93.29
2023-05-21T06:32:25.581Z,93.29
2023-05-21T06:33:25.550Z,93.29
2023-05-21T06:34:25.412Z,93.09
2023-05-21T06:35:25.417Z,93.09
2023-05-21T06:36:25.399Z,92.99
2023-05-21T06:37:26.651Z,92.89
2023-05-21T06:38:25.378Z,92.99
2023-05-21T06:39:25.376Z,93.19
2023-05-21T06:40:25.360Z,93.29
2023-05-21T06:41:25.339Z,93.40
2023-05-21T06:42:25.331Z,93.35
2023-05-21T06:43:25.340Z,93.25
2023-05-21T06:44:25.340Z,93.15
2023-05-21T06:45:25.299Z,92.94
2023-05-21T06:46:25.329Z,92.94
2023-05-21T06:47:25.327Z,93.05
2023-05-21T06:48:25.299Z,93.15
2023-05-21T06:49:25.261Z,92.84
2023-05-21T06:50:25.269Z,92.84
2023-05-21T06:51:25.230Z,92.84
2023-05-21T06:52:25.213Z,92.84
2023-05-21T06:53:25.227Z,92.80
2023-05-21T06:54:26.922Z,92.80
2023-05-21T06:55:25.208Z,92.90
2023-05-21T06:56:25.180Z,92.90
2023-05-21T06:57:25.196Z,92.70
2023-05-21T06:58:25.178Z,92.49
2023-05-21T06:59:25.141Z,92.49
2023-05-21T07:00:25.148Z,92.40
2023-05-21T07:01:25.228Z,92.49
2023-05-21T07:02:25.187Z,92.70
2023-05-21T07:03:25.302Z,92.60
2023-05-21T07:04:25.095Z,92.55
2023-05-21T07:05:25.109Z,92.35
2023-05-21T07:06:25.148Z,92.25
2023-05-21T07:07:25.063Z,92.14
2023-05-21T07:08:25.067Z,91.84
2023-05-21T07:09:25.053Z,91.84
2023-05-21T07:10:25.032Z,91.94
2023-05-21T07:11:25.019Z,91.74
2023-05-21T07:12:25.026Z,91.49
2023-05-21T07:13:25.008Z,91.29
2023-05-21T07:14:24.985Z,91.29
2023-05-21T07:15:25.014Z,90.99
2023-05-21T07:16:25.043Z,90.88
2023-05-21T07:17:25.006Z,90.88
2023-05-21T07:18:24.947Z,90.99
2023-05-21T07:19:24.984Z,90.88
2023-05-21T07:20:24.943Z,90.84
2023-05-21T07:21:24.922Z,90.64
2023-05-21T07:22:26.697Z,90.53
2023-05-21T07:23:24.942Z,90.44
2023-05-21T07:24:24.889Z,90.23
2023-05-21T07:25:24.879Z,90.23
2023-05-21T07:26:24.876Z,90.23
2023-05-21T07:27:26.031Z,90.09
2023-05-21T07:28:24.932Z,89.78
2023-05-21T07:29:24.846Z,89.78
2023-05-21T07:30:24.833Z,89.58
2023-05-21T07:31:24.827Z,89.37
2023-05-21T07:32:24.837Z,89.17
2023-05-21T07:33:24.789Z,89.37
2023-05-21T07:34:24.778Z,88.97
2023-05-21T07:35:24.771Z,89.07
2023-05-21T07:36:24.753Z,89.28
2023-05-21T07:37:24.764Z,89.37
2023-05-21T07:38:24.738Z,89.48
2023-05-21T07:39:24.769Z,89.48
2023-05-21T07:40:24.737Z,89.43
2023-05-21T07:41:24.707Z,88.93
2023-05-21T07:42:24.704Z,88.73
2023-05-21T07:43:24.890Z,88.52
2023-05-21T07:44:24.672Z,88.73
2023-05-21T07:45:24.655Z,88.62
2023-05-21T07:46:24.689Z,88.52
2023-05-21T07:47:24.687Z,88.62
2023-05-21T07:48:24.635Z,88.68
2023-05-21T07:49:24.639Z,88.38
2023-05-21T07:50:24.638Z,88.38
2023-05-21T07:51:24.667Z,88.58
2023-05-21T07:52:24.675Z,88.28
2023-05-21T07:53:24.570Z,88.03
2023-05-21T07:54:24.561Z,87.93
2023-05-21T07:55:24.572Z,87.83
2023-05-21T07:56:24.539Z,87.73
2023-05-21T07:57:24.555Z,87.02
2023-05-21T07:58:24.517Z,87.12
2023-05-21T07:59:24.529Z,87.32
2023-05-21T08:00:24.547Z,87.32
2023-05-21T08:01:24.502Z,86.88
2023-05-21T08:02:24.554Z,86.37
2023-05-21T08:03:24.596Z,86.37
2023-05-21T08:04:24.620Z,85.96
2023-05-21T08:05:24.468Z,86.07
2023-05-21T08:06:24.451Z,86.27
2023-05-21T08:07:24.430Z,86.16
2023-05-21T08:08:24.446Z,86.07
2023-05-21T08:09:24.418Z,86.27
2023-05-21T08:10:24.461Z,86.47
2023-05-21T08:11:24.393Z,86.57
2023-05-21T08:12:24.377Z,86.37
2023-05-21T08:13:24.364Z,86.57
2023-05-21T08:14:24.359Z,86.57
2023-05-21T08:15:24.353Z,86.16
2023-05-21T08:16:24.388Z,86.27
2023-05-21T08:17:24.342Z,86.37
2023-05-21T08:18:24.313Z,86.27
2023-05-21T08:19:24.358Z,85.93
2023-05-21T08:20:24.302Z,85.82
2023-05-21T08:21:24.280Z,85.82
2023-05-21T08:22:24.311Z,85.82
2023-05-21T08:23:24.257Z,85.21
2023-05-21T08:24:24.247Z,85.42
2023-05-21T08:25:24.270Z,85.52
2023-05-21T08:26:24.227Z,85.42
2023-05-21T08:27:24.212Z,85.62
2023-05-21T08:28:24.206Z,85.72
2023-05-21T08:29:24.195Z,85.82
2023-05-21T08:30:24.189Z,86.02
2023-05-21T08:31:24.188Z,85.42
2023-05-21T08:32:24.185Z,85.27
2023-05-21T08:33:24.170Z,85.38
2023-05-21T08:34:24.142Z,85.27
2023-05-21T08:35:24.141Z,85.07
2023-05-21T08:36:24.138Z,84.97
2023-05-21T08:37:24.119Z,84.87
2023-05-21T08:38:24.106Z,84.97
2023-05-21T08:39:24.109Z,84.93
2023-05-21T08:40:24.081Z,84.73
2023-05-21T08:41:24.073Z,84.83
2023-05-21T08:42:35.652Z,85.03
2023-05-21T08:43:24.045Z,84.89
2023-05-21T08:44:24.038Z,84.79
2023-05-21T08:45:24.040Z,84.19
2023-05-21T08:46:24.123Z,84.39
2023-05-21T08:47:24.033Z,84.08
2023-05-21T08:48:24.021Z,84.04
2023-05-21T08:49:26.410Z,84.14
2023-05-21T08:50:23.972Z,83.74
2023-05-21T08:51:23.963Z,83.54
2023-05-21T08:52:23.948Z,83.84
2023-05-21T08:53:28.696Z,83.09
2023-05-21T08:54:23.937Z,82.89
2023-05-21T08:55:23.916Z,83.29
2023-05-21T08:56:23.909Z,83.60
2023-05-21T08:57:23.901Z,82.99
2023-05-21T08:58:23.895Z,82.89
2023-05-21T08:59:23.893Z,83.09
2023-05-21T09:00:23.863Z,82.69
2023-05-21T09:01:25.747Z,82.59
2023-05-21T09:02:23.901Z,82.55
2023-05-21T09:03:23.971Z,82.04
2023-05-21T09:04:23.863Z,81.94
2023-05-21T09:05:23.815Z,82.14
2023-05-21T09:06:23.804Z,82.14
2023-05-21T09:07:23.790Z,82.04
2023-05-21T09:08:23.791Z,81.84
2023-05-21T09:09:23.797Z,82.75
2023-05-21T09:10:23.769Z,82.65
2023-05-21T09:11:23.769Z,82.51
2023-05-21T09:12:23.761Z,82.61
2023-05-21T09:13:23.758Z,82.10
2023-05-21T09:14:23.711Z,81.70
2023-05-21T09:15:23.736Z,80.90
2023-05-21T09:16:23.727Z,81.16
2023-05-21T09:17:23.747Z,81.26
2023-05-21T09:18:23.720Z,81.16
2023-05-21T09:19:23.725Z,81.56
2023-05-21T09:20:23.662Z,81.67
2023-05-21T09:21:23.649Z,80.92
2023-05-21T09:22:23.640Z,80.82
2023-05-21T09:23:23.634Z,81.02
2023-05-21T09:24:23.674Z,80.62
2023-05-21T09:25:23.606Z,80.72
2023-05-21T09:26:23.590Z,80.92
2023-05-21T09:27:23.578Z,80.82
2023-05-21T09:28:23.581Z,80.92
2023-05-21T09:29:23.562Z,80.11
2023-05-21T09:30:26.137Z,80.11
2023-05-21T09:31:23.576Z,79.91
2023-05-21T09:32:23.526Z,79.91
2023-05-21T09:33:23.528Z,80.31
2023-05-21T09:34:23.505Z,79.91
2023-05-21T09:35:23.525Z,80.01
2023-05-21T09:36:23.491Z,80.01
2023-05-21T09:37:27.402Z,79.77
2023-05-21T09:38:23.493Z,79.97
2023-05-21T09:39:23.452Z,80.88
2023-05-21T09:40:23.454Z,81.08
2023-05-21T09:41:23.454Z,80.58
2023-05-21T09:42:23.423Z,80.47
2023-05-21T09:43:23.410Z,80.07
2023-05-21T09:44:23.404Z,79.87
2023-05-21T09:45:23.390Z,80.44
2023-05-21T09:46:23.469Z,80.04
2023-05-21T09:47:23.401Z,79.83
2023-05-21T09:48:23.371Z,80.13
2023-05-21T09:49:23.347Z,80.24
2023-05-21T09:50:23.345Z,80.80
2023-05-21T09:51:23.322Z,79.60
2023-05-21T09:52:23.330Z,79.49
2023-05-21T09:53:23.302Z,78.99
2023-05-21T09:54:23.300Z,79.09
2023-05-21T09:55:23.290Z,79.80
2023-05-21T09:56:23.296Z,78.99
2023-05-21T09:57:23.265Z,78.89
2023-05-21T09:58:23.262Z,78.99
2023-05-21T09:59:23.241Z,78.08
2023-05-21T10:00:23.238Z,77.98
2023-05-21T10:01:23.311Z,78.28
2023-05-21T10:02:23.365Z,78.79
2023-05-21T10:03:23.244Z,79.09
2023-05-21T10:04:23.255Z,78.99
2023-05-21T10:05:23.181Z,78.79
2023-05-21T10:06:23.173Z,78.28
2023-05-21T10:07:23.160Z,78.79
2023-05-21T10:08:23.166Z,78.49
2023-05-21T10:09:23.139Z,78.28
2023-05-21T10:10:23.133Z,78.59
2023-05-21T10:11:23.112Z,79.19
2023-05-21T10:12:23.103Z,79.09
2023-05-21T10:13:23.105Z,79.29
2023-05-21T10:14:23.103Z,79.29
2023-05-21T10:15:23.079Z,79.19
2023-05-21T10:16:23.098Z,79.19
2023-05-21T10:17:23.137Z,79.19
2023-05-21T10:18:23.043Z,79.19
2023-05-21T10:19:23.033Z,79.46
2023-05-21T10:20:23.039Z,79.39
2023-05-21T10:21:23.033Z,80.06
2023-05-21T10:22:23.014Z,79.96
2023-05-21T10:23:22.983Z,79.56
2023-05-21T10:24:22.984Z,80.16
2023-05-21T10:25:22.984Z,79.96
2023-05-21T10:26:22.973Z,80.46
2023-05-21T10:27:22.942Z,80.66
2023-05-21T10:28:22.945Z,80.36
2023-05-21T10:29:22.950Z,80.12
2023-05-21T10:30:22.911Z,80.73
2023-05-21T10:31:22.925Z,80.43
2023-05-21T10:32:23.154Z,79.82
2023-05-21T10:33:22.943Z,79.42
2023-05-21T10:34:22.876Z,78.67
2023-05-21T10:35:22.859Z,78.67
2023-05-21T10:36:22.866Z,78.47
2023-05-21T10:37:22.858Z,77.67
2023-05-21T10:38:22.843Z,77.57
2023-05-21T10:39:22.846Z,77.87
2023-05-21T10:40:22.814Z,78.17
2023-05-21T10:41:22.802Z,78.88
2023-05-21T10:42:22.796Z,79.58
2023-05-21T10:43:22.774Z,77.87
2023-05-21T10:44:22.772Z,78.07
2023-05-21T10:45:22.849Z,78.38
2023-05-21T10:46:22.786Z,78.14
2023-05-21T10:47:22.750Z,78.74
2023-05-21T10:48:22.737Z,78.64
2023-05-21T10:49:22.748Z,79.44
2023-05-21T10:50:22.720Z,78.23
2023-05-21T10:51:22.709Z,77.83
2023-05-21T10:52:22.695Z,78.10
2023-05-21T10:53:22.705Z,78.30
2023-05-21T10:54:22.666Z,78.10
2023-05-21T10:55:22.696Z,78.90
2023-05-21T10:56:22.659Z,78.20
2023-05-21T10:57:22.627Z,78.16
2023-05-21T10:58:22.618Z,77.66
2023-05-21T10:59:22.625Z,77.16
2023-05-21T11:00:22.635Z,77.26
2023-05-21T11:01:22.636Z,76.76
2023-05-21T11:02:22.711Z,76.56
2023-05-21T11:03:22.746Z,76.35
2023-05-21T11:04:22.566Z,76.15
2023-05-21T11:05:22.557Z,76.35
2023-05-21T11:06:22.561Z,76.25
2023-05-21T11:07:22.530Z,75.95
2023-05-21T11:08:22.553Z,76.56
2023-05-21T11:09:22.513Z,76.35
2023-05-21T11:10:22.508Z,76.56
2023-05-21T11:11:22.507Z,76.96
2023-05-21T11:12:22.486Z,76.96
2023-05-21T11:13:22.469Z,76.76
2023-05-21T11:14:22.458Z,76.65
2023-05-21T11:15:22.440Z,76.65
2023-05-21T11:16:22.494Z,76.96
2023-05-21T11:17:22.510Z,76.65
2023-05-21T11:18:22.416Z,78.30
2023-05-21T11:19:22.447Z,77.66
2023-05-21T11:20:22.397Z,77.56
2023-05-21T11:21:22.417Z,77.09
2023-05-21T11:22:22.374Z,76.89
2023-05-21T11:23:22.379Z,76.79
2023-05-21T11:24:22.369Z,77.00
2023-05-21T11:25:22.350Z,77.20
2023-05-21T11:26:22.340Z,77.20
2023-05-21T11:27:22.336Z,76.79
2023-05-21T11:28:22.310Z,76.79
2023-05-21T11:29:22.306Z,76.59
2023-05-21T11:30:22.296Z,76.59
2023-05-21T11:31:22.362Z,76.69
2023-05-21T11:32:22.263Z,76.49
2023-05-21T11:33:22.269Z,77.20
2023-05-21T11:34:22.252Z,77.00
2023-05-21T11:35:22.237Z,77.00
2023-05-21T11:36:22.228Z,77.00
2023-05-21T11:37:22.237Z,76.49
2023-05-21T11:38:22.212Z,76.29
2023-05-21T11:39:22.263Z,76.29
2023-05-21T11:40:22.194Z,76.49
2023-05-21T11:41:22.176Z,76.59
2023-05-21T11:42:22.159Z,76.29
2023-05-21T11:43:22.162Z,76.39
2023-05-21T11:44:22.157Z,77.09
2023-05-21T11:45:22.127Z,76.79
2023-05-21T11:46:22.166Z,77.00
2023-05-21T11:47:22.121Z,77.00
2023-05-21T11:48:23.387Z,77.39
2023-05-21T11:49:22.106Z,77.39
2023-05-21T11:50:22.084Z,77.00
2023-05-21T11:51:22.064Z,76.59
2023-05-21T11:52:22.056Z,77.20
2023-05-21T11:53:22.060Z,77.29
2023-05-21T11:54:22.054Z,76.59
2023-05-21T11:55:22.024Z,76.39
2023-05-21T11:56:22.021Z,76.39
2023-05-21T11:57:22.037Z,77.06
2023-05-21T11:58:21.990Z,77.26
2023-05-21T11:59:22.009Z,77.56
2023-05-21T12:00:22.119Z,77.56
2023-05-21T12:01:21.978Z,76.76
2023-05-21T12:02:22.053Z,75.82
2023-05-21T12:03:22.016Z,75.51
2023-05-21T12:04:21.940Z,75.31
2023-05-21T12:05:21.941Z,75.31
2023-05-21T12:06:21.934Z,75.62
2023-05-21T12:07:21.923Z,76.32
2023-05-21T12:08:21.885Z,76.62
2023-05-21T12:09:21.876Z,76.12
2023-05-21T12:10:21.869Z,76.42
2023-05-21T12:11:21.875Z,75.92
2023-05-21T12:12:21.873Z,75.68
2023-05-21T12:13:21.841Z,75.48
2023-05-21T12:14:21.887Z,75.48
2023-05-21T12:15:21.825Z,75.48
2023-05-21T12:16:21.852Z,75.27
2023-05-21T12:17:21.796Z,75.88
2023-05-21T12:18:21.802Z,75.88
2023-05-21T12:19:21.828Z,76.38
2023-05-21T12:20:21.782Z,76.38
2023-05-21T12:21:21.763Z,77.28
2023-05-21T12:22:21.737Z,76.98
2023-05-21T12:23:21.733Z,76.48
2023-05-21T12:24:21.726Z,76.38
2023-05-21T12:25:21.769Z,76.89
2023-05-21T12:26:21.719Z,76.28
2023-05-21T12:27:21.704Z,76.28
2023-05-21T12:28:21.681Z,76.12
2023-05-21T12:29:21.678Z,76.32
2023-05-21T12:30:21.671Z,76.42
2023-05-21T12:31:21.699Z,76.42
2023-05-21T12:32:21.715Z,76.08
2023-05-21T12:33:23.758Z,76.08
2023-05-21T12:34:21.609Z,76.38
2023-05-21T12:35:21.779Z,76.58
2023-05-21T12:36:21.598Z,76.98
2023-05-21T12:37:21.608Z,77.28
2023-05-21T12:38:21.575Z,75.88
2023-05-21T12:39:21.561Z,76.08
2023-05-21T12:40:21.556Z,76.15
2023-05-21T12:41:21.541Z,76.04
2023-05-21T12:42:21.531Z,76.04
2023-05-21T12:43:21.544Z,75.95
2023-05-21T12:44:21.520Z,76.15
2023-05-21T12:45:21.500Z,76.04
2023-05-21T12:46:21.517Z,76.34
2023-05-21T12:47:21.496Z,75.95
2023-05-21T12:48:21.479Z,75.84
2023-05-21T12:49:21.499Z,75.95
2023-05-21T12:50:21.472Z,76.04
2023-05-21T12:51:21.435Z,75.84
2023-05-21T12:52:21.429Z,75.95